Airfield :
LOGIN :

Register | Disclaimer

   EN    FR    IT 

 










Legend :    VFR   Marginal VFR   IFR   Intensive IFR   Very Intensive IFR
Visi :
Ceiling :
>= 8 km
>= 3000ft
5 to 8 km
1000 to 3000 ft
1500m to 5 km
500 to 1000 ft
800 to 1500m
200 to 500 ft
< 800m
< 200 ft
Symbols :   Thunderstorms  Fog  Heavy snow  Heavy precipitations  Wind > 20 kt
SIGMETs :     Misc.  Thunderstorms  Icing  Turbulence  Mountain Waves  Volcanic Ashes






- Airport Elevation : 147 ft
- IATA code : DUS


EDDL - Düsseldorf Int.

CURRENT METAR :
  • 031220Z 24009KT 180V300 CAVOK 25/10 Q1004 NOSIG

EXPIRED METARs :
  • 031150Z 24009KT 210V280 CAVOK 25/10 Q1004 NOSIG
  • 031120Z 24012KT CAVOK 24/09 Q1005 NOSIG
  • 031050Z 26008KT 220V300 CAVOK 24/09 Q1005 NOSIG
  • 031020Z 25009KT 210V300 CAVOK 23/09 Q1005 NOSIG
  • 030950Z 26009KT 220V290 CAVOK 23/09 Q1006 NOSIG

TAF TAF EDDL
Valid from the 03 at 12:00 until the 04 at 18:00 UTC


031100Z 0312/0418 26007KT CAVOK
TEMPO 0403/0415 BKN014
PROB30
TEMPO 0405/0412 4000 RA OVC009
BECMG 0406/0409 32010KT



MET'MAP, your aeronautical weather chart ! - Copyright ORBIFLY December 2007 - Disclaimer

ORBIFLY MET'MAP TEAM :

Programming & Development : Alexandra Zaïnal
Concept & original design : Baudouin d'Aumeries
Assistance for programming : Marc-Olivier Méhu
Technical & hardware support : Manuel Goepfert

Contact : metmap@orbifly.com




SOURCES & CREDITS :

   NOAA